Time,TemperatureF,DewpointF,PressureIn,WindDirection,WindDirectionDegrees,WindSpeedMPH,WindSpeedGustMPH,Humidity,HourlyPrecipIn,Conditions,Clouds,dailyrainin,SoftwareType,DateUTC
2013-04-29 00:07:00,54.5,53.0,29.93,NNW,333,0.0,0.0,93,0.00,,,0.00,weatherlink.com 1.10,2013-04-29 04:07:00,
2013-04-29 00:22:00,54.5,53.0,29.93,NNW,333,0.0,0.0,94,0.00,,,0.00,weatherlink.com 1.10,2013-04-29 04:22:00,
2013-04-29 00:37:00,54.5,53.0,29.92,NNW,333,0.0,0.0,94,0.00,,,0.00,weatherlink.com 1.10,2013-04-29 04:37:00,
2013-04-29 00:53:00,54.4,53.0,29.93,NNW,333,0.0,0.0,94,0.00,,,0.00,weatherlink.com 1.10,2013-04-29 04:53:00,
2013-04-29 01:08:00,54.1,53.0,29.93,NNW,333,0.0,0.0,94,0.00,,,0.00,weatherlink.com 1.10,2013-04-29 05:08:00,
2013-04-29 01:23:00,53.6,52.0,29.93,NNW,333,0.0,0.0,94,0.00,,,0.00,weatherlink.com 1.10,2013-04-29 05:23:00,
2013-04-29 01:38:00,53.3,52.0,29.93,NNW,333,0.0,0.0,95,0.00,,,0.00,weatherlink.com 1.10,2013-04-29 05:38:00,
2013-04-29 01:53:00,52.9,52.0,29.93,NNW,333,0.0,0.0,95,0.00,,,0.00,weatherlink.com 1.10,2013-04-29 05:53:00,
2013-04-29 02:08:00,52.4,51.0,29.93,NNW,333,0.0,0.0,95,0.00,,,0.00,weatherlink.com 1.10,2013-04-29 06:08:00,
2013-04-29 02:23:00,51.7,50.0,29.93,NNW,333,0.0,0.0,95,0.00,,,0.00,weatherlink.com 1.10,2013-04-29 06:23:00,
2013-04-29 02:38:00,50.9,50.0,29.93,NNW,333,0.0,0.0,96,0.00,,,0.00,weatherlink.com 1.10,2013-04-29 06:38:00,
2013-04-29 02:53:00,50.2,49.0,29.93,NNW,333,0.0,0.0,96,0.00,,,0.00,weatherlink.com 1.10,2013-04-29 06:53:00,
2013-04-29 03:08:00,49.6,49.0,29.93,NNW,333,0.0,0.0,96,0.00,,,0.00,weatherlink.com 1.10,2013-04-29 07:08:00,
2013-04-29 03:23:00,49.4,49.0,29.93,NNW,333,0.0,0.0,97,0.00,,,0.00,weatherlink.com 1.10,2013-04-29 07:23:00,
2013-04-29 03:38:00,49.2,48.0,29.93,NNW,333,0.0,0.0,97,0.00,,,0.00,weatherlink.com 1.10,2013-04-29 07:38:00,
2013-04-29 03:53:00,49.0,48.0,29.93,NNW,333,0.0,0.0,97,0.00,,,0.00,weatherlink.com 1.10,2013-04-29 07:53:00,
2013-04-29 04:08:00,49.8,49.0,29.93,NNW,333,0.0,0.0,98,0.00,,,0.00,weatherlink.com 1.10,2013-04-29 08:08:00,
2013-04-29 04:23:00,50.0,50.0,29.93,NNW,333,0.0,0.0,98,0.00,,,0.00,weatherlink.com 1.10,2013-04-29 08:23:00,
2013-04-29 04:38:00,49.9,49.0,29.94,NNW,333,0.0,0.0,98,0.00,,,0.00,weatherlink.com 1.10,2013-04-29 08:38:00,
2013-04-29 04:53:00,49.7,49.0,29.93,NNW,333,0.0,0.0,98,0.00,,,0.00,weatherlink.com 1.10,2013-04-29 08:53:00,
2013-04-29 05:08:00,49.5,49.0,29.94,NNW,333,0.0,0.0,98,0.00,,,0.00,weatherlink.com 1.10,2013-04-29 09:08:00,
2013-04-29 05:23:00,49.1,49.0,29.94,NNW,333,0.0,0.0,98,0.00,,,0.00,weatherlink.com 1.10,2013-04-29 09:23:00,
2013-04-29 05:38:00,48.8,48.0,29.95,NNW,333,0.0,0.0,98,0.00,,,0.00,weatherlink.com 1.10,2013-04-29 09:38:00,
2013-04-29 05:54:00,48.4,48.0,29.95,NNW,333,0.0,0.0,99,0.00,,,0.00,weatherlink.com 1.10,2013-04-29 09:54:00,
2013-04-29 06:08:00,48.2,48.0,29.95,NNW,333,0.0,0.0,99,0.00,,,0.00,weatherlink.com 1.10,2013-04-29 10:08:00,
2013-04-29 06:23:00,48.7,49.0,29.96,NW,309,0.0,0.0,99,0.00,,,0.00,weatherlink.com 1.10,2013-04-29 10:23:00,
2013-04-29 06:38:00,48.9,49.0,29.97,SW,233,0.0,1.0,99,0.00,,,0.00,weatherlink.com 1.10,2013-04-29 10:38:00,
2013-04-29 06:53:00,48.8,49.0,29.97,West,274,0.0,2.0,99,0.00,,,0.00,weatherlink.com 1.10,2013-04-29 10:53:00,
2013-04-29 07:08:00,48.7,49.0,29.97,WSW,248,1.0,2.0,99,0.00,,,0.00,weatherlink.com 1.10,2013-04-29 11:08:00,
2013-04-29 07:23:00,48.8,49.0,29.98,West,266,0.0,1.0,99,0.00,,,0.00,weatherlink.com 1.10,2013-04-29 11:23:00,
2013-04-29 07:38:00,49.2,49.0,29.98,West,259,0.0,1.0,100,0.00,,,0.00,weatherlink.com 1.10,2013-04-29 11:38:00,
2013-04-29 07:53:00,49.4,49.0,29.99,WNW,288,0.0,1.0,100,0.00,,,0.00,weatherlink.com 1.10,2013-04-29 11:53:00,
2013-04-29 08:08:00,49.6,50.0,29.99,WSW,250,0.0,1.0,100,0.00,,,0.00,weatherlink.com 1.10,2013-04-29 12:08:00,
2013-04-29 08:23:00,49.7,50.0,30.00,SW,236,0.0,1.0,100,0.00,,,0.00,weatherlink.com 1.10,2013-04-29 12:23:00,
2013-04-29 08:38:00,50.0,50.0,30.00,WSW,256,0.0,2.0,100,0.00,,,0.00,weatherlink.com 1.10,2013-04-29 12:38:00,
2013-04-29 08:53:00,50.6,51.0,30.01,West,269,0.0,1.0,100,0.00,,,0.00,weatherlink.com 1.10,2013-04-29 12:53:00,
2013-04-29 09:08:00,51.1,51.0,30.01,West,264,0.0,2.0,100,0.00,,,0.00,weatherlink.com 1.10,2013-04-29 13:08:00,
2013-04-29 09:23:00,52.1,52.0,30.00,WSW,253,0.0,1.0,100,0.00,,,0.00,weatherlink.com 1.10,2013-04-29 13:23:00,
2013-04-29 09:38:00,52.5,52.0,30.01,WSW,253,0.0,1.0,99,0.00,,,0.00,weatherlink.com 1.10,2013-04-29 13:38:00,
2013-04-29 09:53:00,54.1,54.0,30.00,WSW,257,1.0,1.0,98,0.00,,,0.00,weatherlink.com 1.10,2013-04-29 13:53:00,
2013-04-29 10:08:00,56.9,55.0,29.99,SW,232,0.0,1.0,93,0.00,,,0.00,weatherlink.com 1.10,2013-04-29 14:08:00,
2013-04-29 10:24:00,59.2,55.0,30.00,WSW,256,1.0,2.0,86,0.00,,,0.00,weatherlink.com 1.10,2013-04-29 14:24:00,
2013-04-29 10:39:00,60.4,55.0,30.00,WSW,255,1.0,2.0,83,0.00,,,0.00,weatherlink.com 1.10,2013-04-29 14:39:00,
2013-04-29 10:54:00,62.0,56.0,29.99,WSW,239,2.0,3.0,81,0.00,,,0.00,weatherlink.com 1.10,2013-04-29 14:54:00,
2013-04-29 11:09:00,63.6,57.0,29.99,SW,233,0.0,3.0,78,0.00,,,0.00,weatherlink.com 1.10,2013-04-29 15:09:00,
2013-04-29 11:24:00,65.0,57.0,29.99,NE,46,0.0,3.0,75,0.00,,,0.00,weatherlink.com 1.10,2013-04-29 15:24:00,
2013-04-29 11:39:00,66.5,58.0,29.99,South,169,0.0,3.0,73,0.00,,,0.00,weatherlink.com 1.10,2013-04-29 15:39:00,
2013-04-29 11:54:00,68.6,59.0,29.99,WSW,249,1.0,2.0,71,0.00,,,0.00,weatherlink.com 1.10,2013-04-29 15:54:00,
2013-04-29 12:09:00,68.9,58.0,29.99,SW,228,0.0,2.0,68,0.00,,,0.00,weatherlink.com 1.10,2013-04-29 16:09:00,
2013-04-29 12:24:00,69.8,57.0,29.98,North,4,0.0,2.0,65,0.00,,,0.00,weatherlink.com 1.10,2013-04-29 16:24:00,
2013-04-29 12:39:00,69.3,56.0,29.98,East,91,1.0,3.0,63,0.00,,,0.00,weatherlink.com 1.10,2013-04-29 16:39:00,
2013-04-29 12:54:00,71.2,58.0,29.97,WSW,245,1.0,2.0,63,0.00,,,0.00,weatherlink.com 1.10,2013-04-29 16:54:00,
2013-04-29 13:09:00,73.1,57.0,29.97,WSW,246,0.0,4.0,57,0.00,,,0.00,weatherlink.com 1.10,2013-04-29 17:09:00,
2013-04-29 13:24:00,72.7,55.0,29.97,WSW,257,1.0,2.0,55,0.00,,,0.00,weatherlink.com 1.10,2013-04-29 17:24:00,
2013-04-29 13:39:00,71.4,54.0,29.96,ESE,121,0.0,3.0,55,0.00,,,0.00,weatherlink.com 1.10,2013-04-29 17:39:00,
2013-04-29 13:54:00,71.4,55.0,29.96,West,265,0.0,2.0,56,0.00,,,0.00,weatherlink.com 1.10,2013-04-29 17:54:00,
2013-04-29 14:09:00,71.4,55.0,29.96,West,265,1.0,2.0,57,0.00,,,0.00,weatherlink.com 1.10,2013-04-29 18:09:00,
2013-04-29 14:24:00,72.2,54.0,29.96,WSW,256,1.0,2.0,53,0.00,,,0.00,weatherlink.com 1.10,2013-04-29 18:24:00,
2013-04-29 14:39:00,73.1,54.0,29.96,WSW,245,0.0,3.0,52,0.00,,,0.00,weatherlink.com 1.10,2013-04-29 18:39:00,
2013-04-29 14:54:00,74.7,55.0,29.95,North,357,0.0,3.0,50,0.00,,,0.00,weatherlink.com 1.10,2013-04-29 18:54:00,
2013-04-29 15:09:00,76.1,53.0,29.95,SW,231,0.0,2.0,45,0.00,,,0.00,weatherlink.com 1.10,2013-04-29 19:09:00,
2013-04-29 15:24:00,75.5,54.0,29.95,ENE,75,0.0,3.0,48,0.00,,,0.00,weatherlink.com 1.10,2013-04-29 19:24:00,
2013-04-29 15:39:00,76.8,54.0,29.95,West,277,0.0,3.0,46,0.00,,,0.00,weatherlink.com 1.10,2013-04-29 19:39:00,
2013-04-29 15:54:00,74.8,54.0,29.94,NNW,330,1.0,2.0,48,0.00,,,0.00,weatherlink.com 1.10,2013-04-29 19:54:00,
2013-04-29 16:09:00,75.5,54.0,29.94,NW,321,0.0,2.0,47,0.00,,,0.00,weatherlink.com 1.10,2013-04-29 20:09:00,
2013-04-29 16:24:00,73.7,54.0,29.93,WSW,252,0.0,2.0,50,0.00,,,0.00,weatherlink.com 1.10,2013-04-29 20:24:00,
2013-04-29 16:40:00,73.8,54.0,29.92,SSW,205,0.0,2.0,50,0.00,,,0.00,weatherlink.com 1.10,2013-04-29 20:40:00,
2013-04-29 16:55:00,73.9,53.0,29.92,NNE,20,1.0,4.0,49,0.00,,,0.00,weatherlink.com 1.10,2013-04-29 20:55:00,
2013-04-29 17:10:00,73.4,54.0,29.92,ESE,103,0.0,3.0,51,0.00,,,0.00,weatherlink.com 1.10,2013-04-29 21:10:00,
2013-04-29 17:25:00,73.7,54.0,29.93,East,101,0.0,3.0,50,0.00,,,0.00,weatherlink.com 1.10,2013-04-29 21:25:00,
2013-04-29 17:40:00,74.5,54.0,29.93,West,266,1.0,3.0,49,0.00,,,0.00,weatherlink.com 1.10,2013-04-29 21:40:00,
2013-04-29 17:55:00,72.4,53.0,29.93,ESE,119,0.0,3.0,51,0.00,,,0.00,weatherlink.com 1.10,2013-04-29 21:55:00,
2013-04-29 18:10:00,71.8,54.0,29.93,ESE,108,2.0,4.0,54,0.00,,,0.00,weatherlink.com 1.10,2013-04-29 22:10:00,
2013-04-29 18:25:00,70.5,54.0,29.92,NNE,16,0.0,2.0,56,0.00,,,0.00,weatherlink.com 1.10,2013-04-29 22:25:00,
2013-04-29 18:40:00,69.6,54.0,29.93,WNW,293,1.0,5.0,57,0.00,,,0.00,weatherlink.com 1.10,2013-04-29 22:40:00,
2013-04-29 18:55:00,69.6,54.0,29.93,ESE,121,0.0,2.0,57,0.00,,,0.00,weatherlink.com 1.10,2013-04-29 22:55:00,
2013-04-29 19:10:00,69.3,53.0,29.92,NE,44,0.0,3.0,57,0.00,,,0.00,weatherlink.com 1.10,2013-04-29 23:10:00,
2013-04-29 19:25:00,69.0,54.0,29.92,North,6,0.0,5.0,59,0.00,,,0.00,weatherlink.com 1.10,2013-04-29 23:25:00,
2013-04-29 19:40:00,68.0,54.0,29.92,ESE,104,1.0,4.0,62,0.00,,,0.00,weatherlink.com 1.10,2013-04-29 23:40:00,
2013-04-29 19:55:00,67.5,53.0,29.92,SE,143,0.0,3.0,61,0.00,,,0.00,weatherlink.com 1.10,2013-04-29 23:55:00,
2013-04-29 20:10:00,67.0,54.0,29.92,SSE,167,0.0,3.0,64,0.00,,,0.00,weatherlink.com 1.10,2013-04-30 00:10:00,
2013-04-29 20:25:00,66.4,54.0,29.92,SE,136,1.0,4.0,65,0.00,,,0.00,weatherlink.com 1.10,2013-04-30 00:25:00,
2013-04-29 20:40:00,65.6,54.0,29.92,North,349,0.0,4.0,67,0.00,,,0.00,weatherlink.com 1.10,2013-04-30 00:40:00,
2013-04-29 20:55:00,64.9,54.0,29.92,South,172,0.0,4.0,69,0.00,,,0.00,weatherlink.com 1.10,2013-04-30 00:55:00,
2013-04-29 21:10:00,64.2,54.0,29.92,ESE,115,1.0,2.0,70,0.00,,,0.00,weatherlink.com 1.10,2013-04-30 01:10:00,
2013-04-29 21:25:00,63.7,55.0,29.92,South,183,0.0,2.0,72,0.00,,,0.00,weatherlink.com 1.10,2013-04-30 01:25:00,
2013-04-29 21:40:00,63.5,55.0,29.93,SSE,160,2.0,4.0,73,0.00,,,0.00,weatherlink.com 1.10,2013-04-30 01:40:00,
2013-04-29 21:55:00,63.4,55.0,29.93,SSE,156,1.0,4.0,74,0.00,,,0.00,weatherlink.com 1.10,2013-04-30 01:55:00,
2013-04-29 22:10:00,63.1,55.0,29.94,SE,138,1.0,2.0,74,0.00,,,0.00,weatherlink.com 1.10,2013-04-30 02:10:00,
2013-04-29 22:25:00,62.8,55.0,29.93,SE,141,0.0,3.0,75,0.00,,,0.00,weatherlink.com 1.10,2013-04-30 02:25:00,
2013-04-29 22:40:00,62.4,54.0,29.93,South,172,0.0,4.0,75,0.00,,,0.00,weatherlink.com 1.10,2013-04-30 02:40:00,
2013-04-29 22:55:00,61.9,54.0,29.93,South,175,1.0,6.0,76,0.00,,,0.00,weatherlink.com 1.10,2013-04-30 02:55:00,
2013-04-29 23:10:00,61.6,54.0,29.93,ESE,111,0.0,5.0,77,0.00,,,0.00,weatherlink.com 1.10,2013-04-30 03:10:00,
2013-04-29 23:25:00,61.2,54.0,29.93,East,94,0.0,4.0,77,0.00,,,0.00,weatherlink.com 1.10,2013-04-30 03:25:00,
2013-04-29 23:40:00,60.8,54.0,29.93,SSW,198,2.0,5.0,78,0.00,,,0.00,weatherlink.com 1.10,2013-04-30 03:40:00,
2013-04-29 23:55:00,60.4,54.0,29.94,SE,131,0.0,3.0,78,0.00,,,0.00,weatherlink.com 1.10,2013-04-30 03:55:00,